createdAt,value
2018-09-15T00:01:16.974Z,65.30
2018-09-15T00:06:19.131Z,66.09
2018-09-15T00:11:21.273Z,65.53
2018-09-15T00:16:23.434Z,65.85
2018-09-15T00:21:25.572Z,65.63
2018-09-15T00:26:27.722Z,65.96
2018-09-15T00:31:29.843Z,65.80
2018-09-15T00:36:31.986Z,66.40
2018-09-15T00:41:34.156Z,65.80
2018-09-15T00:51:51.444Z,66.45
2018-09-15T00:56:53.607Z,67.06
2018-09-15T01:01:55.735Z,67.11
2018-09-15T01:06:57.893Z,67.48
2018-09-15T01:12:00.039Z,67.52
2018-09-15T01:17:02.166Z,67.57
2018-09-15T01:22:04.323Z,68.15
2018-09-15T01:27:06.493Z,68.12
2018-09-15T01:32:08.633Z,68.04
2018-09-15T01:37:10.763Z,68.09
2018-09-15T01:42:12.915Z,68.09
2018-09-15T01:47:15.030Z,67.57
2018-09-15T01:52:17.158Z,67.73
2018-09-15T01:57:19.302Z,68.30
2018-09-15T02:02:21.456Z,68.09
2018-09-15T02:07:23.609Z,68.54
2018-09-15T02:12:25.746Z,67.98
2018-09-15T02:17:27.870Z,68.49
2018-09-15T02:22:30.023Z,68.02
2018-09-15T02:27:32.178Z,68.06
2018-09-15T02:32:34.355Z,68.49
2018-09-15T02:37:36.496Z,68.34
2018-09-15T02:42:38.617Z,69.19
2018-09-15T02:47:41.128Z,68.76
2018-09-15T02:52:43.283Z,68.72
2018-09-15T02:57:45.432Z,69.32
2018-09-15T03:02:47.538Z,69.48
2018-09-15T03:07:49.674Z,69.42
2018-09-15T03:12:51.937Z,70.21
2018-09-15T03:17:54.078Z,69.92
2018-09-15T03:22:56.238Z,70.76
2018-09-15T03:27:58.371Z,71.09
2018-09-15T03:33:00.470Z,71.74
2018-09-15T03:38:02.634Z,72.37
2018-09-15T03:43:04.942Z,74.11
2018-09-15T03:48:07.107Z,74.70
2018-09-15T03:53:09.221Z,75.56
2018-09-15T03:58:11.386Z,75.92
2018-09-15T04:03:13.533Z,77.24
2018-09-15T04:08:15.646Z,77.14
2018-09-15T04:13:17.764Z,77.38
2018-09-15T04:18:19.878Z,77.86
2018-09-15T04:23:22.008Z,77.16
2018-09-15T04:28:24.206Z,77.45
2018-09-15T04:33:26.302Z,77.91
2018-09-15T04:38:28.442Z,77.41
2018-09-15T04:43:30.549Z,77.77
2018-09-15T04:48:32.650Z,77.67
2018-09-15T04:53:34.795Z,78.17
2018-09-15T04:58:37.011Z,78.02
2018-09-15T05:03:39.155Z,78.22
2018-09-15T05:08:41.288Z,78.12
2018-09-15T05:13:43.430Z,78.37
2018-09-15T05:18:45.583Z,78.20
2018-09-15T05:23:47.706Z,78.33
2018-09-15T05:28:49.866Z,78.68
2018-09-15T05:33:52.056Z,78.11
2018-09-15T05:38:54.212Z,78.42
2018-09-15T05:43:56.309Z,77.83
2018-09-15T05:48:58.415Z,78.41
2018-09-15T05:54:00.661Z,77.87
2018-09-15T05:59:02.877Z,78.59
2018-09-15T06:04:05.090Z,78.49
2018-09-15T06:09:08.256Z,78.75
2018-09-15T06:14:10.431Z,79.40
2018-09-15T06:19:12.561Z,78.80
2018-09-15T06:24:14.741Z,78.92
2018-09-15T06:29:17.446Z,78.64
2018-09-15T06:34:19.595Z,78.58
2018-09-15T06:39:21.817Z,79.30
2018-09-15T06:44:23.925Z,79.67
2018-09-15T06:49:26.051Z,78.54
2018-09-15T06:54:28.219Z,78.75
2018-09-15T06:59:30.418Z,79.33
2018-09-15T07:04:32.569Z,79.24
2018-09-15T07:09:34.677Z,79.10
2018-09-15T07:14:36.822Z,79.11
2018-09-15T07:19:38.981Z,80.15
2018-09-15T07:24:41.121Z,80.87
2018-09-15T07:29:43.272Z,81.14
2018-09-15T07:34:45.460Z,80.65
2018-09-15T07:39:47.582Z,82.04
2018-09-15T07:44:49.937Z,82.21
2018-09-15T07:49:52.128Z,81.97
2018-09-15T07:54:54.306Z,82.17
2018-09-15T07:59:56.542Z,82.58
2018-09-15T08:04:58.765Z,82.96
2018-09-15T08:10:00.952Z,82.29
2018-09-15T08:15:03.149Z,82.24
2018-09-15T08:20:06.264Z,82.01
2018-09-15T08:25:08.795Z,82.59
2018-09-15T08:30:10.964Z,82.15
2018-09-15T08:35:13.116Z,82.21
2018-09-15T08:40:15.338Z,82.39
2018-09-15T08:45:18.036Z,82.17
2018-09-15T08:50:20.206Z,81.85
2018-09-15T08:55:22.365Z,81.26
2018-09-15T09:00:24.619Z,81.58
2018-09-15T09:05:26.752Z,81.38
2018-09-15T09:10:28.892Z,81.28
2018-09-15T09:15:31.043Z,81.88
2018-09-15T09:20:33.167Z,81.19
2018-09-15T09:25:35.314Z,80.94
2018-09-15T09:30:37.460Z,80.27
2018-09-15T09:35:39.673Z,79.36
2018-09-15T09:40:41.849Z,80.06
2018-09-15T09:45:44.023Z,78.34
2018-09-15T09:50:46.211Z,77.58
2018-09-15T09:55:48.558Z,78.44
2018-09-15T10:00:56.420Z,78.24
2018-09-15T10:05:58.698Z,77.44
2018-09-15T10:11:00.854Z,77.78
2018-09-15T10:16:03.090Z,76.54
2018-09-15T10:21:05.206Z,75.64
2018-09-15T10:26:07.502Z,75.80
2018-09-15T10:31:09.704Z,75.89
2018-09-15T10:36:12.272Z,75.90
2018-09-15T10:41:14.591Z,74.62
2018-09-15T10:46:16.813Z,74.59
2018-09-15T10:51:18.959Z,75.09
2018-09-15T10:56:21.183Z,75.56
2018-09-15T11:01:23.361Z,74.89
2018-09-15T11:06:25.589Z,74.89
2018-09-15T11:11:27.791Z,74.02
2018-09-15T11:16:30.539Z,70.38
2018-09-15T11:21:32.741Z,68.17
2018-09-15T11:26:34.928Z,68.56
2018-09-15T11:31:37.559Z,64.76
2018-09-15T11:36:39.777Z,64.74
2018-09-15T11:41:41.957Z,59.92
2018-09-15T11:46:44.123Z,60.94
2018-09-15T11:51:46.319Z,62.23
2018-09-15T11:56:48.502Z,61.76
2018-09-15T12:01:50.781Z,61.27
2018-09-15T12:06:52.972Z,63.94
2018-09-15T12:11:55.187Z,62.52
2018-09-15T12:16:57.388Z,63.42
2018-09-15T12:21:59.548Z,64.49
2018-09-15T12:27:01.712Z,64.81
2018-09-15T12:32:03.930Z,65.27
2018-09-15T12:37:06.161Z,64.95
2018-09-15T12:42:08.364Z,62.57
2018-09-15T12:47:10.526Z,62.62
2018-09-15T12:52:12.751Z,63.01
2018-09-15T12:57:14.927Z,63.63
2018-09-15T13:02:17.126Z,63.54
2018-09-15T13:07:19.311Z,63.22
2018-09-15T13:12:21.478Z,60.83
2018-09-15T13:17:23.762Z,60.51
2018-09-15T13:22:25.939Z,60.93
2018-09-15T13:27:28.153Z,60.85
2018-09-15T13:32:31.019Z,59.19
2018-09-15T13:37:33.139Z,59.17
2018-09-15T13:42:35.272Z,61.52
2018-09-15T13:47:37.422Z,61.73
2018-09-15T13:52:39.607Z,62.96
2018-09-15T13:57:41.793Z,62.67
2018-09-15T14:02:44.136Z,62.74
2018-09-15T14:07:46.320Z,62.06
2018-09-15T14:12:48.508Z,61.35
2018-09-15T14:17:50.686Z,62.73
2018-09-15T14:22:52.864Z,62.02
2018-09-15T14:27:55.054Z,63.41
2018-09-15T14:32:57.251Z,66.19
2018-09-15T14:37:59.435Z,69.61
2018-09-15T14:43:01.989Z,70.78
2018-09-15T14:48:04.618Z,70.93
2018-09-15T14:53:06.783Z,71.23
2018-09-15T14:58:08.976Z,70.20
2018-09-15T15:03:11.871Z,71.18
2018-09-15T15:08:14.068Z,71.48
2018-09-15T15:13:16.229Z,71.78
2018-09-15T15:18:18.396Z,72.52
2018-09-15T15:23:20.575Z,72.82
2018-09-15T15:28:22.730Z,74.05
2018-09-15T15:33:24.980Z,73.80
2018-09-15T15:38:27.158Z,74.05
2018-09-15T15:43:29.405Z,73.91
2018-09-15T15:48:31.596Z,73.99
2018-09-15T15:53:33.758Z,73.79
2018-09-15T15:58:36.041Z,74.60
2018-09-15T16:03:38.179Z,73.61
2018-09-15T16:08:40.363Z,73.95
2018-09-15T16:13:42.591Z,74.23
2018-09-15T16:18:44.798Z,75.61
2018-09-15T16:23:46.979Z,75.14
2018-09-15T16:28:49.411Z,74.15
2018-09-15T16:33:51.896Z,75.08
2018-09-15T16:38:54.094Z,74.89
2018-09-15T16:43:56.358Z,74.78
2018-09-15T16:48:58.511Z,75.44
2018-09-15T16:54:00.701Z,76.09
2018-09-15T16:59:02.905Z,75.16
2018-09-15T17:04:05.167Z,75.43
2018-09-15T17:09:08.785Z,74.81
2018-09-15T17:14:10.973Z,75.78
2018-09-15T17:19:13.179Z,76.57
2018-09-15T17:24:15.407Z,76.31
2018-09-15T17:29:17.578Z,76.12
2018-09-15T17:34:19.744Z,77.51
2018-09-15T17:39:21.952Z,76.64
2018-09-15T17:44:24.100Z,76.22
2018-09-15T17:49:26.275Z,77.29
2018-09-15T17:54:28.527Z,77.51
2018-09-15T17:59:30.782Z,77.47
2018-09-15T18:04:33.007Z,78.92
2018-09-15T18:09:35.264Z,78.85
2018-09-15T18:14:37.389Z,78.61
2018-09-15T18:19:39.585Z,77.89
2018-09-15T18:24:41.825Z,78.35
2018-09-15T18:29:43.984Z,77.98
2018-09-15T18:34:46.173Z,78.47
2018-09-15T18:39:48.491Z,78.55
2018-09-15T18:44:50.680Z,77.92
2018-09-15T18:49:52.879Z,77.62
2018-09-15T18:54:55.145Z,77.98
2018-09-15T18:59:57.383Z,78.30
2018-09-15T19:04:59.717Z,78.10
2018-09-15T19:10:01.979Z,77.72
2018-09-15T19:15:04.313Z,78.23
2018-09-15T19:20:07.524Z,78.54
2018-09-15T19:25:10.054Z,78.18
2018-09-15T19:30:12.387Z,78.95
2018-09-15T19:35:14.757Z,77.86
2018-09-15T19:40:17.113Z,78.06
2018-09-15T19:45:19.580Z,77.56
2018-09-15T19:50:21.915Z,77.30
2018-09-15T19:55:24.152Z,77.27
2018-09-15T20:00:26.402Z,77.01
2018-09-15T20:05:28.788Z,76.84
2018-09-15T20:10:31.064Z,77.34
2018-09-15T20:15:32.383Z,77.34
2018-09-15T20:20:33.688Z,77.27
2018-09-15T20:25:35.972Z,77.17
2018-09-15T20:30:38.569Z,77.36
2018-09-15T20:35:41.005Z,77.74
2018-09-15T20:40:43.187Z,77.98
2018-09-15T20:45:45.432Z,77.59
2018-09-15T20:50:47.653Z,78.15
2018-09-15T20:55:49.876Z,78.78
2018-09-15T21:00:52.112Z,78.27
2018-09-15T21:05:54.402Z,78.28
2018-09-15T21:10:56.567Z,78.02
2018-09-15T21:15:58.749Z,77.93
2018-09-15T21:21:00.990Z,78.26
2018-09-15T21:26:03.161Z,78.60
2018-09-15T21:31:05.589Z,78.93
2018-09-15T21:36:07.772Z,79.50
2018-09-15T21:41:09.958Z,79.53
2018-09-15T21:46:12.190Z,79.76
2018-09-15T21:51:14.462Z,80.31
2018-09-15T21:56:16.625Z,80.42
2018-09-15T22:01:18.825Z,79.86
2018-09-15T22:06:21.111Z,80.31
2018-09-15T22:11:23.343Z,80.21
2018-09-15T22:16:25.548Z,80.39
2018-09-15T22:21:27.757Z,80.50
2018-09-15T22:26:29.997Z,80.32
2018-09-15T22:31:32.154Z,80.19
2018-09-15T22:36:34.298Z,80.04
2018-09-15T22:41:37.175Z,78.98
2018-09-15T22:46:39.318Z,78.16
2018-09-15T22:51:41.503Z,77.70
2018-09-15T22:56:43.750Z,78.40
2018-09-15T23:01:45.894Z,77.99
2018-09-15T23:06:48.179Z,77.83
2018-09-15T23:11:50.349Z,78.08
2018-09-15T23:16:52.865Z,78.48
2018-09-15T23:21:55.099Z,78.23
2018-09-15T23:26:57.214Z,77.77
2018-09-15T23:31:59.346Z,77.98
2018-09-15T23:37:01.503Z,77.71
2018-09-15T23:42:03.680Z,77.75
2018-09-15T23:47:05.807Z,77.72
2018-09-15T23:52:08.182Z,77.75
2018-09-15T23:57:10.320Z,77.02
